This is the latest recevied weather packets stored in our database for station/object K5JLG-10. If no packets are shown the sender has not sent any weather packets the latest 10 day(s).
| Time | Temp. | Humidity | Pressure | Rain* | Wind** | Luminosity | Snow |
|---|---|---|---|---|---|---|---|
| 1777565777 | 17.22° C | 88% | 1016.5 hPa | 0 mm | - | - | - |
| 1777562777 | 17.22° C | 85% | 1016.9 hPa | 0 mm | - | - | - |
| 1777562177 | 17.22° C | 85% | 1015.9 hPa | 0 mm | - | - | - |
| 1777554737 | 15.56° C | 89% | 1014.4 hPa | 0 mm | - | - | - |
| 1777544537 | 15.56° C | 85% | 1014.3 hPa | 0 mm | - | - | - |
| 1777539737 | 16.67° C | 82% | 1014.3 hPa | 0 mm | - | - | - |
| 1777537337 | 16.67° C | 82% | 1014.1 hPa | 0 mm | - | - | - |
| 1777529536 | 17.78° C | 80% | 1015 hPa | 0 mm | - | - | - |
| 1777524736 | 18.33° C | 80% | 1015.7 hPa | 0 mm | - | - | - |
| 1777520558 | 18.33° C | 80% | 1015.3 hPa | 0 mm | - | - | - |
| 1777519936 | 18.33° C | 80% | 1015.2 hPa | 0 mm | - | - | - |
| 1777517557 | 18.33° C | 80% | 1014.8 hPa | 0 mm | - | - | - |
| 1777515737 | 17.78° C | 80% | 1014.4 hPa | 0 mm | - | - | - |
| 1777512137 | 17.78° C | 79% | 1013.2 hPa | 0 mm | - | - | - |
| 1777509736 | 17.78° C | 80% | 1013.5 hPa | 0 mm | - | - | - |
| 1777507345 | 17.22° C | 81% | 1013.6 hPa | 0 mm | - | - | - |
| 1777502957 | 16.67° C | 82% | 1013.4 hPa | 0 mm | - | - | - |
| 1777499956 | 17.78° C | 80% | 1013.4 hPa | 0 mm | - | - | - |
| 1777492756 | 18.33° C | 79% | 1014.2 hPa | 0 mm | - | - | - |
| 1777489775 | 17.78° C | 80% | 1014.2 hPa | 0 mm | - | - | - |
| 1777484476 | 16.67° C | 83% | 1015.9 hPa | 0 mm | - | - | - |
| 1777482678 | 16.67° C | 82% | 1016.1 hPa | 0 mm | - | - | - |
| 1777477277 | 16.11° C | 82% | 1016 hPa | 0 mm | - | - | - |
| 1777469477 | 16.11° C | 79% | 1015.4 hPa | 0 mm | - | - | - |
| 1777468898 | 16.11° C | 79% | 1015.3 hPa | 0 mm | - | - | - |
* Rain latest hour (hover to see other rain measurements)
** Current wind speed in m/s (hover to see current wind gust speed)